Time;durP1;ratioP1;P1;durP2;ratioP2;P2;SDS_P1;SDS_P2;PMS_P1;PMS_P2;Temp;Humidity;BMP_temperature;BMP_pressure;BME280_temperature;BME280_humidity;BME280_pressure;Samples;Min_cycle;Max_cycle;Signal;HPM_P1;HPM_P2
2022/11/24 00:01:23;;;;;;;23.58;6.70;;;11.00;99.90;;;10.07;93.45;99843.00;5115488;28;20292;-66
2022/11/24 00:03:56;;;;;;;28.48;8.10;;;10.90;99.90;;;11.08;93.58;100026.16;5115248;28;20396;-66
2022/11/24 00:06:25;;;;;;;29.67;7.55;;;10.90;99.90;;;11.03;93.86;100011.28;5115761;28;20135;-66
2022/11/24 00:08:53;;;;;;;33.08;8.50;;;10.90;99.90;;;10.96;93.72;99980.53;5114841;28;20060;-66
2022/11/24 00:11:25;;;;;;;21.55;7.15;;;10.90;99.90;;;11.00;93.81;99998.97;5097018;28;20556;-66
2022/11/24 00:13:54;;;;;;;29.05;8.10;;;10.80;99.90;;;10.95;94.11;99997.31;5097024;28;20047;-66
2022/11/24 00:16:25;;;;;;;28.88;7.78;;;10.80;99.90;;;10.96;94.41;99999.03;5115158;28;20534;-66
2022/11/24 00:18:57;;;;;;;30.33;8.18;;;10.80;99.90;;;10.86;94.27;99983.38;5115091;28;20044;-66
2022/11/24 00:21:29;;;;;;;29.27;8.07;;;10.90;99.90;;;10.94;95.08;99993.78;5114860;28;20397;-66
2022/11/24 00:23:58;;;;;;;27.60;7.47;;;10.90;99.90;;;10.86;95.41;99998.34;5114842;28;20119;-66
2022/11/24 00:26:29;;;;;;;27.85;7.32;;;10.80;99.90;;;10.98;95.57;100011.34;5114919;28;20469;-66
2022/11/24 00:28:58;;;;;;;;;;;10.80;99.90;;;10.77;95.57;99996.78;5115205;28;20050;-66
2022/11/24 00:31:29;;;;;;;23.02;7.20;;;10.70;99.90;;;10.91;95.21;100028.25;5114909;28;19926;-66
2022/11/24 00:34:01;;;;;;;26.85;7.65;;;10.70;99.90;;;10.91;94.97;100015.03;5096290;28;20043;-66
2022/11/24 00:36:31;;;;;;;22.42;6.47;;;10.70;99.90;;;10.81;94.66;100024.03;5096601;28;20040;-66
2022/11/24 00:39:01;;;;;;;;;;;10.70;99.90;;;10.77;94.59;100010.00;5113906;28;20105;-66
2022/11/24 00:41:31;;;;;;;20.17;6.93;;;10.60;99.90;;;10.84;94.50;100018.66;5114756;28;20018;-66
2022/11/24 00:43:59;;;;;;;28.33;7.20;;;10.70;99.90;;;10.80;94.14;100031.09;5114945;28;20040;-66
2022/11/24 00:46:28;;;;;;;22.65;6.85;;;10.60;99.90;;;10.69;94.45;100013.69;5114220;28;20504;-67
2022/11/24 00:49:00;;;;;;;28.17;8.10;;;10.60;99.90;;;10.87;94.30;100026.56;5114500;28;20051;-67
2022/11/24 00:51:29;;;;;;;26.83;7.32;;;10.60;99.90;;;10.90;94.12;100031.78;5114317;28;20043;-66
2022/11/24 00:53:59;;;;;;;24.55;7.65;;;10.70;99.90;;;10.87;93.89;100019.50;5114104;28;20035;-66
2022/11/24 00:56:29;;;;;;;24.00;7.72;;;10.70;99.90;;;10.26;93.74;99931.66;5114095;28;20043;-66
2022/11/24 00:58:58;;;;;;;25.63;7.00;;;10.70;99.90;;;10.75;93.89;100046.19;5114124;28;20047;-66
2022/11/24 01:01:29;;;;;;;26.67;7.47;;;10.60;99.90;;;10.62;94.00;99985.63;5114307;28;20036;-66
2022/11/24 01:04:01;;;;;;;20.08;7.03;;;10.70;99.90;;;10.81;94.06;100030.22;5114031;28;20138;-67
2022/11/24 01:06:31;;;;;;;23.08;7.35;;;10.60;99.90;;;10.82;93.90;100025.75;5114623;28;20446;-67
2022/11/24 01:08:59;;;;;;;28.45;7.40;;;10.70;99.90;;;10.91;93.77;100033.53;5113715;28;20126;-67
2022/11/24 01:11:59;;;;;;;25.23;8.10;;;10.70;99.90;;;10.75;93.97;100021.50;5114209;28;20117;-67
2022/11/24 01:14:21;;;;;;;23.58;6.95;;;10.80;99.90;;;10.89;94.01;100038.88;5114050;28;20119;-67
2022/11/24 01:16:50;;;;;;;28.13;7.88;;;10.70;99.90;;;10.61;94.45;100012.94;5113826;28;20374;-67
2022/11/24 01:19:20;;;;;;;32.70;7.68;;;10.70;99.90;;;10.70;94.45;100044.53;5113702;28;20074;-68
2022/11/24 01:21:48;;;;;;;26.73;8.32;;;10.70;99.90;;;10.94;94.62;100033.47;5114024;28;20120;-67
2022/11/24 01:24:17;;;;;;;22.13;7.03;;;10.70;99.90;;;10.94;94.30;100046.69;5114255;28;20039;-67
2022/11/24 01:26:45;;;;;;;22.33;7.13;;;10.80;99.90;;;10.78;94.25;100038.19;5113685;28;20063;-67
2022/11/24 01:29:13;;;;;;;25.73;7.38;;;10.70;99.90;;;10.92;94.36;100048.50;5113617;28;20052;-67
2022/11/24 01:31:42;;;;;;;22.58;6.93;;;10.80;99.90;;;10.94;94.14;100062.56;5113682;28;20078;-67
2022/11/24 01:34:11;;;;;;;23.83;7.18;;;10.70;99.90;;;10.84;94.18;100067.16;5095535;28;20572;-67
2022/11/24 01:36:41;;;;;;;24.08;6.75;;;10.70;99.90;;;10.81;94.27;100071.66;5095563;28;20150;-67
2022/11/24 01:39:09;;;;;;;26.25;7.07;;;10.60;99.90;;;10.80;94.20;100059.34;5113500;28;20404;-67
2022/11/24 01:41:38;;;;;;;29.38;7.30;;;10.70;99.90;;;10.82;94.26;100083.97;5113796;28;20070;-67
2022/11/24 01:44:24;;;;;;;28.85;7.20;;;10.60;99.90;;;10.87;94.17;100079.47;5113445;28;20027;-67
2022/11/24 01:46:58;;;;;;;20.67;7.00;;;10.60;99.90;;;10.87;93.93;100083.00;5113806;28;20114;-68
2022/11/24 01:49:36;;;;;;;22.70;6.57;;;10.70;99.90;;;10.82;94.07;100084.84;5114776;28;20404;-67
2022/11/24 01:52:10;;;;;;;20.92;6.68;;;10.60;99.90;;;10.80;93.71;100091.94;5120305;28;20036;-67
2022/11/24 01:54:44;;;;;;;22.75;7.40;;;10.60;99.90;;;10.81;93.71;100095.44;5120804;28;20036;-67
2022/11/24 01:57:19;;;;;;;23.05;7.25;;;10.60;99.90;;;10.84;93.73;100095.38;5120303;28;20043;-67
2022/11/24 01:59:50;;;;;;;22.67;6.95;;;10.60;99.90;;;10.79;93.51;100084.03;5120442;28;20044;-67
2022/11/24 02:02:24;;;;;;;24.73;7.00;;;10.70;99.90;;;10.70;93.45;100076.28;5102110;28;20071;-67
2022/11/24 02:04:54;;;;;;;22.17;7.03;;;10.60;99.90;;;10.78;93.38;100092.88;5120503;28;20044;-67
2022/11/24 02:07:24;;;;;;;21.83;6.32;;;10.60;99.90;;;10.72;93.55;100090.34;5101879;28;20054;-67
2022/11/24 02:09:57;;;;;;;20.95;5.93;;;10.60;99.90;;;10.75;93.56;100074.41;5120100;28;20056;-67
2022/11/24 02:12:27;;;;;;;21.08;6.18;;;10.60;99.90;;;10.56;93.18;100059.75;5120335;28;20126;-67
2022/11/24 02:14:56;;;;;;;17.15;5.72;;;10.60;99.90;;;10.72;92.85;100092.97;5119995;28;20054;-67
2022/11/24 02:17:25;;;;;;;22.42;5.90;;;10.60;99.90;;;10.71;92.46;100102.69;5119956;28;20048;-67
2022/11/24 02:19:58;;;;;;;15.73;4.70;;;10.50;99.90;;;10.64;91.69;100118.69;5119940;28;20123;-67
2022/11/24 02:22:44;;;;;;;13.38;5.13;;;10.40;99.90;;;10.67;90.56;100116.84;5120011;28;20114;-67
2022/11/24 02:25:23;;;;;;;10.20;4.45;;;10.50;99.90;;;10.59;89.57;100102.00;5120295;28;20452;-68
2022/11/24 02:27:54;;;;;;;13.00;4.68;;;10.50;99.90;;;10.49;88.64;100074.00;5119976;28;20127;-67
2022/11/24 02:30:23;;;;;;;13.77;4.57;;;10.50;99.90;;;10.71;87.62;100115.03;5101859;28;20078;-67
2022/11/24 02:32:52;;;;;;;10.82;4.30;;;10.50;99.90;;;10.75;87.07;100108.78;5119836;28;20042;-67
2022/11/24 02:35:21;;;;;;;6.43;3.55;;;10.50;99.90;;;10.74;86.26;100097.31;5119761;28;20054;-67
2022/11/24 02:37:49;;;;;;;11.85;4.35;;;10.60;99.90;;;10.79;85.47;100105.19;5119840;28;20031;-67
2022/11/24 02:40:24;;;;;;;7.03;3.83;;;10.60;99.90;;;10.90;84.89;100097.94;5119704;28;20032;-67
2022/11/24 02:42:58;;;;;;;6.32;3.58;;;10.70;99.90;;;10.93;83.87;100104.94;5119829;28;20114;-67
2022/11/24 02:45:28;;;;;;;8.07;3.70;;;10.70;99.90;;;10.99;83.35;100097.78;5101713;28;20043;-67
2022/11/24 02:47:56;;;;;;;4.75;3.20;;;10.80;99.90;;;10.96;82.64;100105.75;5101714;28;20408;-67
2022/11/24 02:50:25;;;;;;;7.93;4.13;;;10.80;99.90;;;11.00;82.16;100111.84;5101927;28;20054;-67
2022/11/24 02:52:53;;;;;;;7.15;3.58;;;10.80;99.90;;;11.02;82.71;100110.94;5119978;28;20074;-67
2022/11/24 02:55:22;;;;;;;6.70;4.03;;;10.80;99.90;;;10.79;83.12;100068.16;5119534;28;20043;-67
2022/11/24 02:57:50;;;;;;;8.50;3.80;;;10.80;99.90;;;11.06;83.38;100119.69;5119826;28;20401;-68
2022/11/24 03:00:21;;;;;;;6.25;3.90;;;10.90;99.90;;;11.07;84.01;100121.44;5119839;28;20044;-67
2022/11/24 03:02:49;;;;;;;8.68;4.55;;;10.90;99.90;;;11.14;84.77;100131.00;5115523;28;20397;-67
2022/11/24 03:05:18;;;;;;;11.88;4.93;;;10.90;99.90;;;11.12;85.44;100131.03;5116340;28;20039;-67
2022/11/24 03:07:46;;;;;;;12.23;5.25;;;10.90;99.90;;;11.04;85.53;100140.00;5116414;28;20061;-67
2022/11/24 03:10:15;;;;;;;11.98;4.70;;;10.90;99.90;;;10.93;86.04;100137.56;5116278;28;20480;-67
2022/11/24 03:12:44;;;;;;;12.45;4.65;;;10.80;99.90;;;10.32;86.93;100055.75;5116753;28;20051;-66
2022/11/24 03:15:12;;;;;;;17.75;5.90;;;10.70;99.90;;;10.86;88.13;100154.44;5116150;28;20046;-67
2022/11/24 03:17:42;;;;;;;13.10;5.32;;;10.70;99.90;;;10.95;88.96;100161.34;5116345;28;20130;-67
2022/11/24 03:20:12;;;;;;;15.00;5.78;;;10.70;99.90;;;10.99;89.32;100160.41;5115975;28;20039;-67
2022/11/24 03:22:40;;;;;;;22.77;6.27;;;10.80;99.90;;;10.92;89.90;100174.66;5116109;28;20046;-67
2022/11/24 03:25:10;;;;;;;21.85;7.18;;;10.80;99.90;;;11.04;90.55;100159.41;5116005;28;20039;-67
2022/11/24 03:27:38;;;;;;;17.58;6.50;;;10.80;99.90;;;11.09;90.34;100157.53;5115939;28;20042;-67
2022/11/24 03:30:08;;;;;;;17.20;6.32;;;10.90;99.90;;;11.02;90.93;100137.41;5115892;28;20118;-67
2022/11/24 03:32:36;;;;;;;16.42;5.97;;;10.80;99.90;;;10.82;91.56;100150.97;5097907;28;20105;-67
2022/11/24 03:35:07;;;;;;;16.10;6.53;;;10.70;99.90;;;10.74;91.79;100154.66;5097341;28;20491;-67
2022/11/24 03:37:36;;;;;;;26.38;6.25;;;10.60;99.90;;;10.71;92.65;100155.56;5116106;28;20057;-67
2022/11/24 03:40:05;;;;;;;16.90;5.90;;;10.50;99.90;;;10.52;92.86;100142.69;5115631;28;20035;-67
2022/11/24 03:42:34;;;;;;;16.10;5.90;;;10.50;99.90;;;10.64;93.25;100163.63;5116215;28;20412;-67
2022/11/24 03:45:02;;;;;;;19.05;6.63;;;10.40;99.90;;;10.62;93.93;100189.22;5115585;28;20576;-67
2022/11/24 03:47:51;;;;;;;14.32;5.82;;;10.40;99.90;;;10.39;94.76;100152.59;5116146;28;20050;-67
2022/11/24 03:50:21;;;;;;;16.65;6.07;;;10.40;99.90;;;10.56;95.92;100191.97;5115551;28;20092;-67
2022/11/24 03:52:49;;;;;;;14.48;5.50;;;10.30;99.90;;;10.31;96.27;100175.59;5115505;28;20526;-68
2022/11/24 03:55:17;;;;;;;17.67;6.13;;;10.30;99.90;;;10.40;97.22;100206.31;5115619;28;20396;-67
2022/11/24 03:57:46;;;;;;;13.60;5.30;;;10.20;99.90;;;10.28;97.10;100202.06;5115552;28;20411;-67
2022/11/24 04:00:15;;;;;;;13.90;4.88;;;10.10;99.90;;;10.17;96.76;100217.19;5115520;28;20047;-67
2022/11/24 04:02:44;;;;;;;8.63;3.90;;;10.00;99.90;;;10.17;95.79;100227.78;5115873;28;20093;-67
2022/11/24 04:05:12;;;;;;;5.97;3.53;;;10.00;99.90;;;9.95;95.47;100187.50;5115446;28;20303;-67
2022/11/24 04:07:42;;;;;;;6.20;3.80;;;10.00;99.90;;;10.01;93.24;100229.69;5115308;28;20048;-67
2022/11/24 04:10:10;;;;;;;4.93;3.20;;;9.80;99.90;;;9.94;93.39;100237.72;5115384;28;20044;-67
2022/11/24 04:12:44;;;;;;;6.10;3.63;;;9.80;99.90;;;9.90;93.82;100234.25;5115443;28;20655;-67
2022/11/24 04:15:16;;;;;;;11.70;3.72;;;9.70;99.90;;;9.80;94.51;100237.00;5115041;28;20043;-67
2022/11/24 04:17:44;;;;;;;12.30;3.78;;;9.70;99.90;;;9.76;95.11;100253.78;5115265;28;20116;-67
2022/11/24 04:20:14;;;;;;;9.32;4.25;;;9.60;99.90;;;9.71;95.55;100240.63;5114806;28;20047;-66
2022/11/24 04:22:44;;;;;;;12.40;4.55;;;9.60;99.90;;;9.47;96.06;100221.53;5114784;28;20031;-67
2022/11/24 04:25:16;;;;;;;10.10;4.72;;;9.60;99.90;;;9.88;96.01;100273.00;5114780;28;20523;-67
2022/11/24 04:27:44;;;;;;;7.97;3.80;;;9.60;99.90;;;9.92;95.99;100280.00;5114788;28;20043;-67
2022/11/24 04:30:13;;;;;;;7.55;3.92;;;9.70;99.90;;;9.92;95.84;100277.38;5114718;28;20050;-67
2022/11/24 04:32:41;;;;;;;8.55;3.60;;;9.70;99.90;;;9.98;95.46;100281.72;5114838;28;20439;-67
2022/11/24 04:35:10;;;;;;;12.18;4.05;;;9.70;99.90;;;9.92;95.35;100271.22;5114570;28;20119;-67
2022/11/24 04:37:41;;;;;;;10.20;4.00;;;9.80;99.90;;;9.98;94.89;100282.59;5114846;28;20088;-67
2022/11/24 04:40:12;;;;;;;5.32;3.60;;;9.80;99.90;;;9.85;94.68;100269.53;5114414;28;20040;-67
2022/11/24 04:42:40;;;;;;;6.95;3.03;;;9.70;99.90;;;10.05;94.33;100291.28;5114525;28;20550;-67
2022/11/24 04:45:10;;;;;;;6.40;3.60;;;9.80;99.90;;;10.03;93.89;100285.16;5114688;28;20048;-67
2022/11/24 04:47:39;;;;;;;6.88;3.70;;;9.80;99.90;;;10.04;93.86;100294.84;5114665;28;20110;-67
2022/11/24 04:50:09;;;;;;;7.35;3.95;;;9.80;99.90;;;10.09;93.63;100302.69;5114524;28;20048;-67
2022/11/24 04:52:37;;;;;;;7.47;3.75;;;9.90;99.90;;;10.07;93.80;100301.84;5114540;28;20079;-67
2022/11/24 04:55:07;;;;;;;6.90;3.63;;;9.90;99.90;;;10.03;93.77;100307.16;5114237;28;20032;-67
2022/11/24 04:57:37;;;;;;;10.75;3.50;;;9.80;99.90;;;10.04;94.05;100313.34;5114497;28;20067;-67
2022/11/24 05:00:08;;;;;;;6.03;3.25;;;9.80;99.90;;;10.06;94.02;100300.09;5114109;28;20039;-67
2022/11/24 05:02:36;;;;;;;9.85;3.80;;;9.90;99.90;;;10.12;93.94;100323.84;5114732;28;20125;-67
2022/11/24 05:05:06;;;;;;;5.95;3.70;;;9.90;99.90;;;10.11;94.20;100317.69;5114282;28;20039;-67
2022/11/24 05:07:35;;;;;;;6.47;3.80;;;9.90;99.90;;;10.11;94.85;100330.91;5114254;28;20558;-68
2022/11/24 05:12:56;;;;;;;8.80;4.07;;;9.90;99.90;;;10.08;94.99;100322.09;5113927;28;20049;-67
2022/11/24 05:15:24;;;;;;;9.85;3.80;;;9.90;99.90;;;10.20;95.05;100345.78;5113943;28;20048;-67
2022/11/24 05:17:53;;;;;;;8.52;3.55;;;9.90;99.90;;;10.21;94.99;100345.75;5113829;28;20031;-67
2022/11/24 05:20:22;;;;;;;8.23;3.90;;;10.00;99.90;;;10.27;95.25;100352.75;5113700;28;20489;-67
2022/11/24 05:22:50;;;;;;;10.45;4.10;;;10.00;99.90;;;10.18;95.18;100327.28;5113733;28;20046;-66
2022/11/24 05:25:19;;;;;;;11.65;4.45;;;10.10;99.90;;;10.38;95.25;100359.66;5113407;28;20105;-67
2022/11/24 05:27:47;;;;;;;10.48;4.78;;;10.20;99.90;;;10.40;95.40;100363.16;5113593;28;20560;-67
2022/11/24 05:30:17;;;;;;;8.45;4.07;;;10.20;99.90;;;10.30;95.47;100342.16;5114206;28;20043;-66
2022/11/24 05:32:45;;;;;;;9.07;4.80;;;10.20;99.90;;;10.33;96.26;100350.03;5113614;28;20546;-67
2022/11/24 05:35:14;;;;;;;12.32;4.90;;;10.20;99.90;;;10.36;96.85;100361.44;5113523;28;20067;-67
2022/11/24 05:37:42;;;;;;;10.73;4.50;;;10.20;99.90;;;10.29;96.76;100366.81;5113771;28;20409;-67
2022/11/24 05:40:11;;;;;;;14.70;5.10;;;10.20;99.90;;;10.39;97.06;100371.13;5113541;28;20054;-67
2022/11/24 05:42:42;;;;;;;8.57;5.13;;;10.20;99.90;;;10.40;96.97;100365.81;5113425;28;20050;-67
2022/11/24 05:45:19;;;;;;;10.57;5.35;;;10.20;99.90;;;10.20;96.67;100340.50;5113505;28;20114;-67
2022/11/24 05:47:48;;;;;;;11.30;5.13;;;10.20;99.90;;;10.37;96.91;100375.53;5113425;28;20048;-67
2022/11/24 05:50:20;;;;;;;7.82;5.13;;;10.20;99.90;;;10.36;96.84;100384.34;5113354;28;20046;-67
2022/11/24 05:52:48;;;;;;;9.55;4.90;;;10.10;99.90;;;10.35;96.47;100385.25;5113372;28;20104;-67
2022/11/24 05:55:18;;;;;;;8.30;5.35;;;10.10;99.90;;;10.38;96.54;100380.81;5113609;28;20088;-67
2022/11/24 05:57:47;;;;;;;13.70;5.72;;;10.20;99.90;;;10.23;96.37;100359.84;5113368;28;20125;-66
2022/11/24 06:00:18;;;;;;;8.48;5.07;;;10.20;99.90;;;10.43;95.96;100394.81;5113333;28;20097;-67
2022/11/24 06:02:48;;;;;;;14.13;5.55;;;10.20;99.90;;;10.42;95.65;100405.44;5113598;28;20496;-67
2022/11/24 06:05:16;;;;;;;11.15;5.30;;;10.20;99.90;;;10.46;95.57;100401.84;5095023;28;20142;-67
2022/11/24 06:07:45;;;;;;;12.68;5.30;;;10.20;99.90;;;10.53;95.33;100409.69;5113264;28;20050;-67
2022/11/24 06:10:14;;;;;;;13.23;5.47;;;10.30;99.90;;;10.27;94.96;100373.88;5113264;28;20075;-67
2022/11/24 06:12:43;;;;;;;12.90;6.45;;;10.30;99.90;;;10.56;94.76;100412.31;5113260;28;20060;-67
2022/11/24 06:15:12;;;;;;;12.68;5.50;;;10.30;99.90;;;10.51;94.89;100419.41;5113210;28;20046;-67
2022/11/24 06:17:42;;;;;;;13.38;6.88;;;10.30;99.90;;;10.56;95.04;100430.84;5113094;28;20122;-68
2022/11/24 06:20:12;;;;;;;10.37;6.77;;;10.40;99.90;;;10.31;95.20;100417.91;5113392;28;20126;-67
2022/11/24 06:22:40;;;;;;;12.67;5.87;;;10.40;99.90;;;10.54;95.47;100432.63;5113445;28;20352;-67
2022/11/24 06:25:09;;;;;;;11.32;6.13;;;10.40;99.90;;;10.58;95.80;100439.63;5113624;28;20039;-67
2022/11/24 06:27:37;;;;;;;11.48;5.80;;;10.30;99.90;;;10.62;95.57;100435.19;5113100;28;20138;-67
2022/11/24 06:30:07;;;;;;;11.82;5.68;;;10.40;99.90;;;10.63;95.78;100436.91;5113581;28;20047;-67
2022/11/24 06:32:35;;;;;;;11.10;6.05;;;10.40;99.90;;;10.69;95.59;100439.47;5113051;28;20443;-67
2022/11/24 06:35:06;;;;;;;11.45;6.20;;;10.40;99.90;;;10.68;95.67;100441.25;5113586;28;20038;-67
2022/11/24 06:37:36;;;;;;;;;;;10.50;99.90;;;10.77;95.45;100459.69;5115650;28;20043;-67
2022/11/24 06:40:07;;;;;;;14.57;6.10;;;10.60;99.90;;;10.77;95.26;100457.03;5116842;28;20285;-66
2022/11/24 06:42:36;;;;;;;13.98;6.28;;;10.60;99.90;;;10.80;95.15;100456.97;5117013;28;20130;-67
2022/11/24 06:45:06;;;;;;;16.73;7.40;;;10.60;99.90;;;10.82;95.17;100468.41;5117064;28;20101;-67
2022/11/24 06:47:37;;;;;;;11.77;7.22;;;10.70;99.90;;;10.82;95.40;100484.28;5116711;28;20047;-67
2022/11/24 06:50:09;;;;;;;11.13;6.80;;;10.60;99.90;;;10.86;95.31;100482.47;5098385;28;20049;-67
2022/11/24 06:52:37;;;;;;;16.70;6.93;;;10.70;99.90;;;10.81;95.56;100486.97;5116951;28;20063;-67
2022/11/24 06:55:07;;;;;;;17.02;7.95;;;10.60;99.90;;;10.69;96.10;100479.16;5117164;28;20039;-67
2022/11/24 06:57:36;;;;;;;15.15;7.07;;;10.60;99.90;;;10.66;96.85;100484.50;5116563;28;20063;-67
2022/11/24 07:00:06;;;;;;;13.82;6.32;;;10.50;99.90;;;10.78;96.87;100497.59;5116810;28;20108;-67
2022/11/24 07:02:35;;;;;;;16.55;6.57;;;10.50;99.90;;;10.70;96.68;100480.94;5116436;28;20040;-67
2022/11/24 07:05:10;;;;;;;14.35;6.05;;;10.60;99.90;;;10.86;96.50;100511.59;5116527;28;20039;-67
2022/11/24 07:07:38;;;;;;;15.18;6.32;;;10.60;99.90;;;10.86;96.48;100508.94;5115905;28;20082;-67
2022/11/24 07:10:08;;;;;;;13.93;6.43;;;10.70;99.90;;;10.80;96.63;100511.69;5116674;28;20127;-67
2022/11/24 07:12:36;;;;;;;16.67;6.07;;;10.60;99.90;;;10.88;96.64;100515.09;5116474;28;20142;-67
2022/11/24 07:15:07;;;;;;;16.27;5.65;;;10.60;99.90;;;10.92;96.36;100518.59;5116125;28;20401;-68
2022/11/24 07:17:36;;;;;;;16.13;5.85;;;10.70;99.90;;;10.87;96.02;100516.88;5116195;28;20055;-68
2022/11/24 07:20:06;;;;;;;13.88;5.20;;;10.70;99.90;;;10.91;95.66;100536.25;5098060;28;20059;-67
2022/11/24 07:22:36;;;;;;;18.02;6.20;;;10.70;99.90;;;10.51;95.63;100474.94;5116039;28;20055;-67
2022/11/24 07:25:08;;;;;;;23.15;5.63;;;10.70;99.90;;;10.83;95.62;100546.03;5116023;28;20051;-67
2022/11/24 07:27:37;;;;;;;17.50;5.80;;;10.60;99.90;;;10.74;95.75;100546.13;5097992;28;20442;-67
2022/11/24 07:30:07;;;;;;;17.00;5.47;;;10.60;99.90;;;10.71;95.85;100540.84;5115791;28;20430;-67
2022/11/24 07:32:35;;;;;;;17.88;5.97;;;10.50;99.90;;;10.71;95.92;100556.72;5115780;28;20139;-67
2022/11/24 07:35:04;;;;;;;16.00;5.63;;;10.50;99.90;;;10.74;96.04;100560.22;5115805;28;20039;-67
2022/11/24 07:37:32;;;;;;;17.13;5.60;;;10.50;99.90;;;10.74;96.29;100583.16;5115987;28;20442;-67
2022/11/24 07:40:02;;;;;;;15.50;5.80;;;10.50;99.90;;;10.79;96.20;100568.13;5115608;28;20046;-67
2022/11/24 07:42:31;;;;;;;20.73;5.80;;;10.60;99.90;;;10.78;96.13;100554.00;5116132;28;20068;-67
2022/11/24 07:44:59;;;;;;;25.92;6.45;;;10.60;99.90;;;10.93;95.96;100590.03;5115807;28;20456;-66
2022/11/24 07:47:27;;;;;;;25.60;6.13;;;10.70;99.90;;;10.85;95.77;100565.41;5115067;28;20039;-67
2022/11/24 07:49:56;;;;;;;18.55;5.47;;;10.80;99.90;;;11.00;95.28;100583.75;5115540;28;20035;-67
2022/11/24 07:52:25;;;;;;;18.95;5.97;;;10.80;99.90;;;11.07;95.28;100593.38;5115788;28;20052;-67
2022/11/24 07:54:54;;;;;;;14.40;5.45;;;10.80;99.90;;;11.11;95.20;100600.38;5115632;28;20047;-67
2022/11/24 07:57:27;;;;;;;16.80;5.60;;;10.90;99.90;;;11.13;94.60;100598.59;5115326;28;20040;-67
2022/11/24 07:59:56;;;;;;;16.45;5.10;;;10.90;99.90;;;11.17;94.76;100602.13;5115320;28;20062;-67
2022/11/24 08:02:25;;;;;;;19.88;6.43;;;11.00;99.90;;;11.24;94.66;100593.22;5115435;28;20477;-67
2022/11/24 08:04:56;;;;;;;20.45;5.80;;;11.10;99.90;;;11.49;93.94;100618.50;5097194;28;20378;-67
2022/11/24 08:07:24;;;;;;;21.17;5.20;;;11.20;99.90;;;11.64;93.67;100629.78;5115378;28;20035;-67
2022/11/24 08:09:53;;;;;;;19.08;5.65;;;11.40;99.90;;;11.66;92.87;100625.38;5115565;28;20058;-68
2022/11/24 08:12:23;;;;;;;21.90;6.18;;;11.50;99.90;;;11.72;92.19;100629.72;5115020;28;20112;-67
2022/11/24 08:14:51;;;;;;;19.17;6.20;;;11.50;99.90;;;11.87;92.08;100625.97;5115186;28;20127;-67
2022/11/24 08:17:20;;;;;;;25.42;6.03;;;11.60;99.90;;;11.64;91.47;100574.16;5115100;28;20051;-67
2022/11/24 08:19:48;;;;;;;21.60;5.75;;;11.80;99.90;;;12.16;91.46;100637.94;5114914;28;20553;-67
2022/11/24 08:22:17;;;;;;;23.00;6.05;;;11.90;99.90;;;12.38;90.97;100635.84;5115045;28;20043;-67
2022/11/24 08:24:47;;;;;;;20.65;6.35;;;12.20;99.90;;;12.54;89.96;100651.47;5115035;28;20044;-67
2022/11/24 08:27:16;;;;;;;18.70;6.13;;;12.40;99.90;;;12.59;88.76;100646.09;5115322;28;20039;-67
2022/11/24 08:29:46;;;;;;;20.35;6.35;;;12.50;99.90;;;12.70;87.68;100649.44;5114504;28;20588;-67
2022/11/24 08:32:15;;;;;;;15.63;5.77;;;12.50;99.90;;;12.77;87.60;100659.09;5114905;28;20444;-67
2022/11/24 08:34:49;;;;;;;28.67;5.95;;;12.60;99.90;;;12.88;87.05;100658.88;5114934;28;20293;-67
2022/11/24 08:37:19;;;;;;;23.10;5.90;;;12.70;99.90;;;13.01;86.49;100671.91;5114770;28;20047;-67
2022/11/24 08:39:48;;;;;;;20.75;5.63;;;12.80;99.90;;;13.08;85.89;100662.13;5114813;28;20117;-68
2022/11/24 08:42:16;;;;;;;24.65;6.68;;;13.00;99.90;;;13.32;85.96;100677.59;5114389;28;20535;-68
2022/11/24 08:44:46;;;;;;;22.42;6.43;;;13.20;99.90;;;13.49;85.59;100676.34;5114394;28;20046;-68
2022/11/24 08:47:17;;;;;;;17.52;6.40;;;13.40;99.90;;;13.78;85.20;100686.41;5114487;28;20126;-68
2022/11/24 08:49:45;;;;;;;21.08;6.60;;;13.60;99.90;;;13.88;83.83;100674.69;5096425;28;20553;-68
2022/11/24 08:52:14;;;;;;;20.23;6.05;;;13.80;99.90;;;14.00;82.42;100677.09;5114281;28;20049;-68
2022/11/24 08:54:43;;;;;;;16.83;5.93;;;14.00;99.90;;;14.13;81.34;100653.78;5096241;28;20463;-68
2022/11/24 08:57:13;;;;;;;19.80;6.13;;;14.20;99.90;;;14.68;80.07;100703.94;5114481;28;20043;-68
2022/11/24 08:59:50;;;;;;;20.65;6.35;;;14.50;99.90;;;14.98;78.61;100714.72;5113715;28;20044;-68
2022/11/24 09:02:18;;;;;;;15.60;5.82;;;14.80;99.90;;;14.91;76.92;100657.22;5095990;28;20484;-68
2022/11/24 09:04:46;;;;;;;19.77;5.95;;;15.10;99.90;;;15.46;75.79;100706.44;5114005;28;20036;-68
2022/11/24 09:07:15;;;;;;;15.90;5.38;;;15.30;99.90;;;15.60;74.64;100723.78;5114092;28;20039;-68
2022/11/24 09:09:44;;;;;;;19.63;6.40;;;15.40;99.90;;;15.68;73.72;100724.47;5114440;28;20044;-68
2022/11/24 09:12:12;;;;;;;14.95;5.35;;;15.60;99.90;;;15.82;72.85;100724.06;5095961;28;20492;-68
2022/11/24 09:14:44;;;;;;;19.42;6.10;;;15.70;99.90;;;16.05;72.36;100749.19;5114494;28;20058;-68
2022/11/24 09:17:14;;;;;;;18.95;5.95;;;15.90;99.90;;;16.20;71.62;100739.88;5113955;28;20051;-67
2022/11/24 09:19:42;;;;;;;16.20;5.03;;;16.10;99.90;;;16.31;71.13;100740.44;5113876;28;20058;-68
2022/11/24 09:22:11;;;;;;;17.00;5.65;;;16.20;99.90;;;16.41;70.46;100751.69;5095733;28;20043;-68
2022/11/24 09:24:39;;;;;;;20.48;5.97;;;16.30;99.90;;;16.42;69.41;100751.66;5113653;28;20092;-67
2022/11/24 09:27:08;;;;;;;22.20;6.00;;;16.30;99.90;;;16.26;69.66;100756.56;5113680;28;20049;-67
2022/11/24 09:29:36;;;;;;;18.05;5.63;;;16.20;99.90;;;15.99;69.48;100744.03;5113537;28;20039;-68
2022/11/24 09:32:05;;;;;;;18.33;5.53;;;16.00;99.90;;;15.85;70.38;100764.03;5095269;28;20048;-68
2022/11/24 09:34:35;;;;;;;19.40;6.85;;;15.70;99.90;;;15.46;70.81;100773.06;5113862;28;20043;-67
2022/11/24 09:37:04;;;;;;;14.60;6.00;;;15.40;99.90;;;15.42;71.72;100771.41;5113637;28;20073;-68
2022/11/24 09:39:32;;;;;;;13.90;5.82;;;15.20;99.90;;;15.26;72.15;100736.22;5113513;28;20048;-67
2022/11/24 09:42:14;;;;;;;18.60;6.22;;;15.30;99.90;;;14.53;71.60;100616.47;5113709;28;20047;-68
2022/11/24 09:45:14;;;;;;;18.27;6.20;;;15.40;99.90;;;15.22;71.98;100793.19;5095493;28;20130;-68
2022/11/24 09:48:02;;;;;;;21.65;6.55;;;15.10;99.90;;;14.71;72.64;100680.78;5095472;28;20043;-67
2022/11/24 09:50:35;;;;;;;16.88;5.88;;;15.10;99.90;;;15.57;72.71;100797.66;5113507;28;20044;-68
2022/11/24 09:53:11;;;;;;;21.70;6.43;;;15.30;99.90;;;15.30;71.96;100797.44;5113672;28;20055;-68
2022/11/24 09:55:44;;;;;;;27.90;7.60;;;15.20;99.90;;;15.37;72.12;100807.00;5113377;28;20126;-67
2022/11/24 09:58:33;;;;;;;20.48;6.80;;;15.20;99.90;;;15.24;72.03;100816.22;5095385;28;20147;-67
2022/11/24 10:01:05;;;;;;;26.08;6.40;;;15.20;99.90;;;15.07;72.39;100817.53;5113241;28;20035;-68
2022/11/24 10:03:40;;;;;;;19.90;6.25;;;15.00;99.90;;;14.84;72.63;100807.44;5113271;28;20071;-67
2022/11/24 10:06:22;;;;;;;25.45;6.78;;;14.80;99.90;;;14.88;73.54;100819.75;5113612;28;20071;-67
2022/11/24 10:09:34;;;;;;;28.58;7.40;;;14.70;99.90;;;14.88;73.30;100817.09;5113335;28;20059;-67
2022/11/24 10:12:16;;;;;;;22.83;6.50;;;14.70;99.90;;;14.97;72.91;100822.22;5117027;28;20046;-67
2022/11/24 10:15:29;;;;;;;21.85;6.95;;;14.80;99.90;;;15.14;72.25;100814.69;5117444;28;20039;-67
2022/11/24 10:18:36;;;;;;;20.25;8.07;;;15.00;99.90;;;15.37;71.92;100814.13;5117368;28;20039;-68
2022/11/24 10:21:26;;;;;;;25.95;7.63;;;15.20;99.90;;;15.67;71.59;100817.84;5117297;28;20043;-67
2022/11/24 10:24:15;;;;;;;22.88;7.55;;;15.50;99.90;;;15.56;69.88;100779.91;5117128;28;20040;-67
2022/11/24 10:26:51;;;;;;;24.92;7.30;;;15.60;99.90;;;15.87;69.72;100812.88;5117185;28;20075;-68
2022/11/24 10:29:25;;;;;;;26.90;7.57;;;15.70;99.90;;;16.17;69.74;100818.22;5117158;28;20139;-67